Archival Weather

Aeroparque Jorge Newbery

Buenos Aires, Argentina (SABE)

Report from: Thursday, February 22, 2024 2:00 PM -03
Current time: Monday, June 24, 2024 7:36 AM -03

Current weather – Weather history – Daily summaries
Weather forecast

Temperature28.0°C (82.4°F)
Heat index30.8°C (87.5°F)
Dew point22.0°C (71.6°F)
Winds 5 kts (2.6 m/s, 5.8 mph) Vrb
Winds variableWinds variable from North (359.999999°) to East (80°)
Clouds Sky clear
Altimeter29.71 in.Hg (1006 mB)
Relative humidity70 %
Density altitude2,096 ft. (639 m)
Remarks Ceiling and visibility OK
No significant changes expected in the next two hours
Flight conditions Visual Meteorological Conditions
Raw dataSABE 221700Z 03005KT 360V080 CAVOK 28/22 Q1006 NOSIG
An error has occurred. This application may no longer respond until reloaded. Reload 🗙